sensor_id;sensor_type;location;lat;lon;timestamp;temperature;humidity
57843;DHT22;43673;51.058;3.734;2023-04-24T08:10:32;15.90;99.90
57843;DHT22;43673;51.058;3.734;2023-04-24T08:12:58;17.70;99.90
57843;DHT22;43673;51.058;3.734;2023-04-24T08:15:33;18.60;99.90
57843;DHT22;43673;51.058;3.734;2023-04-24T08:17:59;19.20;99.90
57843;DHT22;43673;51.058;3.734;2023-04-24T08:20:31;19.90;99.90
57843;DHT22;43673;51.058;3.734;2023-04-24T08:22:56;19.70;99.90
57843;DHT22;43673;51.058;3.734;2023-04-24T08:25:26;18.80;99.90
57843;DHT22;43673;51.058;3.734;2023-04-24T08:27:54;17.80;99.90
57843;DHT22;43673;51.058;3.734;2023-04-24T08:30:20;17.40;99.90
57843;DHT22;43673;51.058;3.734;2023-04-24T08:32:46;17.60;99.90
57843;DHT22;43673;51.058;3.734;2023-04-24T08:35:14;18.20;99.90
57843;DHT22;43673;51.058;3.734;2023-04-24T08:37:40;18.80;99.90
57843;DHT22;43673;51.058;3.734;2023-04-24T08:40:14;19.90;99.90
57843;DHT22;43673;51.058;3.734;2023-04-24T08:42:44;20.20;99.90
57843;DHT22;43673;51.058;3.734;2023-04-24T08:45:10;19.90;99.90
57843;DHT22;43673;51.058;3.734;2023-04-24T08:47:38;20.50;98.60
57843;DHT22;43673;51.058;3.734;2023-04-24T08:50:08;21.00;96.20
57843;DHT22;43673;51.058;3.734;2023-04-24T08:52:36;20.20;96.70
57843;DHT22;43673;51.058;3.734;2023-04-24T08:55:03;19.80;97.10
57843;DHT22;43673;51.058;3.734;2023-04-24T08:57:28;19.40;98.30
57843;DHT22;43673;51.058;3.734;2023-04-24T08:59:55;18.50;99.00
57843;DHT22;43673;51.058;3.734;2023-04-24T09:02:23;18.00;99.90
57843;DHT22;43673;51.058;3.734;2023-04-24T09:04:49;17.40;99.90
57843;DHT22;43673;51.058;3.734;2023-04-24T09:07:16;17.00;99.90
57843;DHT22;43673;51.058;3.734;2023-04-24T09:09:43;16.80;99.90
57843;DHT22;43673;51.058;3.734;2023-04-24T09:12:10;16.70;99.90
57843;DHT22;43673;51.058;3.734;2023-04-24T09:14:36;16.30;99.90
57843;DHT22;43673;51.058;3.734;2023-04-24T10:18:00;17.20;99.90
57843;DHT22;43673;51.058;3.734;2023-04-24T10:20:42;17.10;99.90
57843;DHT22;43673;51.058;3.734;2023-04-24T10:23:35;16.70;99.90
57843;DHT22;43673;51.058;3.734;2023-04-24T10:26:23;16.50;99.90
57843;DHT22;43673;51.058;3.734;2023-04-24T10:29:35;16.80;99.90
57843;DHT22;43673;51.058;3.734;2023-04-24T10:32:02;16.80;99.90
57843;DHT22;43673;51.058;3.734;2023-04-24T10:34:28;17.20;99.90
57843;DHT22;43673;51.058;3.734;2023-04-24T10:36:56;17.70;99.90
57843;DHT22;43673;51.058;3.734;2023-04-24T10:39:26;17.60;99.90
57843;DHT22;43673;51.058;3.734;2023-04-24T10:41:53;18.20;99.90
57843;DHT22;43673;51.058;3.734;2023-04-24T10:44:23;18.60;99.20
57843;DHT22;43673;51.058;3.734;2023-04-24T10:46:54;18.30;98.70
57843;DHT22;43673;51.058;3.734;2023-04-24T10:49:31;18.30;97.80
57843;DHT22;43673;51.058;3.734;2023-04-24T10:52:02;18.30;98.10
57843;DHT22;43673;51.058;3.734;2023-04-24T10:54:35;18.20;98.50
57843;DHT22;43673;51.058;3.734;2023-04-24T10:59:52;19.90;96.00
57843;DHT22;43673;51.058;3.734;2023-04-24T11:02:39;19.70;94.80
57843;DHT22;43673;51.058;3.734;2023-04-24T11:05:07;19.40;93.90
57843;DHT22;43673;51.058;3.734;2023-04-24T11:10:43;18.10;96.10
57843;DHT22;43673;51.058;3.734;2023-04-24T11:13:09;18.00;96.70
57843;DHT22;43673;51.058;3.734;2023-04-24T11:15:35;18.20;95.90
57843;DHT22;43673;51.058;3.734;2023-04-24T11:18:01;18.30;96.00
57843;DHT22;43673;51.058;3.734;2023-04-24T11:20:27;18.00;96.20
57843;DHT22;43673;51.058;3.734;2023-04-24T11:22:54;18.10;95.80
57843;DHT22;43673;51.058;3.734;2023-04-24T11:26:09;18.00;96.20
57843;DHT22;43673;51.058;3.734;2023-04-24T11:28:43;17.60;96.30
57843;DHT22;43673;51.058;3.734;2023-04-24T11:31:38;17.30;97.10
57843;DHT22;43673;51.058;3.734;2023-04-24T11:34:13;17.00;97.50
57843;DHT22;43673;51.058;3.734;2023-04-24T11:40:03;16.50;98.10
57843;DHT22;43673;51.058;3.734;2023-04-24T11:42:42;16.30;98.80
57843;DHT22;43673;51.058;3.734;2023-04-24T11:45:24;16.20;99.20
57843;DHT22;43673;51.058;3.734;2023-04-24T11:47:54;16.10;99.00
57843;DHT22;43673;51.058;3.734;2023-04-24T11:53:25;16.00;99.50
57843;DHT22;43673;51.058;3.734;2023-04-24T11:55:55;16.10;99.90
57843;DHT22;43673;51.058;3.734;2023-04-24T11:59:06;16.20;99.10
57843;DHT22;43673;51.058;3.734;2023-04-24T12:07:54;16.40;99.00
57843;DHT22;43673;51.058;3.734;2023-04-24T12:10:25;16.40;98.90
57843;DHT22;43673;51.058;3.734;2023-04-24T12:12:56;16.50;98.40
57843;DHT22;43673;51.058;3.734;2023-04-24T12:15:24;16.50;98.30
57843;DHT22;43673;51.058;3.734;2023-04-24T12:41:57;16.40;96.70
57843;DHT22;43673;51.058;3.734;2023-04-24T12:44:32;16.60;97.20
57843;DHT22;43673;51.058;3.734;2023-04-24T12:47:00;16.50;97.40
57843;DHT22;43673;51.058;3.734;2023-04-24T12:54:37;15.80;98.60
57843;DHT22;43673;51.058;3.734;2023-04-24T12:57:03;15.80;97.90
57843;DHT22;43673;51.058;3.734;2023-04-24T13:08:37;15.50;97.90
57843;DHT22;43673;51.058;3.734;2023-04-24T13:24:17;15.40;98.40
57843;DHT22;43673;51.058;3.734;2023-04-24T13:32:16;15.20;98.00
57843;DHT22;43673;51.058;3.734;2023-04-24T13:35:34;15.40;98.00
57843;DHT22;43673;51.058;3.734;2023-04-24T13:41:04;15.50;98.90
57843;DHT22;43673;51.058;3.734;2023-04-24T13:43:30;15.60;98.90
57843;DHT22;43673;51.058;3.734;2023-04-24T13:51:13;15.60;98.50
57843;DHT22;43673;51.058;3.734;2023-04-24T14:07:55;15.40;98.40
57843;DHT22;43673;51.058;3.734;2023-04-24T14:10:33;15.50;97.50
57843;DHT22;43673;51.058;3.734;2023-04-24T14:12:58;15.70;97.40
57843;DHT22;43673;51.058;3.734;2023-04-24T14:18:19;15.80;96.20
57843;DHT22;43673;51.058;3.734;2023-04-24T14:24:02;15.50;97.50
57843;DHT22;43673;51.058;3.734;2023-04-24T14:26:28;15.60;97.80
57843;DHT22;43673;51.058;3.734;2023-04-24T14:28:54;15.80;97.30
57843;DHT22;43673;51.058;3.734;2023-04-24T14:31:20;15.90;97.50
57843;DHT22;43673;51.058;3.734;2023-04-24T14:33:46;15.90;97.10
57843;DHT22;43673;51.058;3.734;2023-04-24T14:36:11;16.10;96.50
57843;DHT22;43673;51.058;3.734;2023-04-24T14:38:37;16.20;96.40
57843;DHT22;43673;51.058;3.734;2023-04-24T14:41:04;16.20;96.50
57843;DHT22;43673;51.058;3.734;2023-04-24T14:43:35;16.10;96.20
57843;DHT22;43673;51.058;3.734;2023-04-24T14:46:01;16.10;95.70
57843;DHT22;43673;51.058;3.734;2023-04-24T14:48:27;16.00;96.00
57843;DHT22;43673;51.058;3.734;2023-04-24T15:01:47;15.70;96.70
57843;DHT22;43673;51.058;3.734;2023-04-24T15:04:13;15.70;97.20
57843;DHT22;43673;51.058;3.734;2023-04-24T15:06:39;15.90;96.90
57843;DHT22;43673;51.058;3.734;2023-04-24T15:11:41;16.00;95.90
57843;DHT22;43673;51.058;3.734;2023-04-24T15:14:08;16.10;95.80
57843;DHT22;43673;51.058;3.734;2023-04-24T15:16:33;16.20;95.70
57843;DHT22;43673;51.058;3.734;2023-04-24T15:18:59;16.10;95.80
57843;DHT22;43673;51.058;3.734;2023-04-24T15:21:27;15.90;96.20
57843;DHT22;43673;51.058;3.734;2023-04-24T15:23:52;16.00;95.80
57843;DHT22;43673;51.058;3.734;2023-04-24T15:26:20;15.90;95.80
57843;DHT22;43673;51.058;3.734;2023-04-24T15:28:47;15.90;95.30
57843;DHT22;43673;51.058;3.734;2023-04-24T15:31:13;15.90;95.70
57843;DHT22;43673;51.058;3.734;2023-04-24T15:33:39;15.80;95.90
57843;DHT22;43673;51.058;3.734;2023-04-24T15:36:05;15.90;95.70
57843;DHT22;43673;51.058;3.734;2023-04-24T15:38:31;16.10;95.70
57843;DHT22;43673;51.058;3.734;2023-04-24T15:40:57;16.10;95.90
57843;DHT22;43673;51.058;3.734;2023-04-24T15:43:22;16.10;95.70
57843;DHT22;43673;51.058;3.734;2023-04-24T15:45:51;16.00;95.80
57843;DHT22;43673;51.058;3.734;2023-04-24T15:48:20;15.90;96.20
57843;DHT22;43673;51.058;3.734;2023-04-24T15:50:46;15.70;96.30
57843;DHT22;43673;51.058;3.734;2023-04-24T15:53:12;15.80;96.70
57843;DHT22;43673;51.058;3.734;2023-04-24T15:55:38;15.70;96.90
57843;DHT22;43673;51.058;3.734;2023-04-24T15:58:03;15.60;96.80
57843;DHT22;43673;51.058;3.734;2023-04-24T16:00:29;15.80;96.70
57843;DHT22;43673;51.058;3.734;2023-04-24T16:03:02;15.90;96.60
57843;DHT22;43673;51.058;3.734;2023-04-24T16:05:28;15.80;96.20
57843;DHT22;43673;51.058;3.734;2023-04-24T16:07:54;15.60;95.80
57843;DHT22;43673;51.058;3.734;2023-04-24T16:10:20;15.40;96.10
57843;DHT22;43673;51.058;3.734;2023-04-24T16:12:54;15.20;97.30
57843;DHT22;43673;51.058;3.734;2023-04-24T16:22:04;15.00;98.50
57843;DHT22;43673;51.058;3.734;2023-04-24T16:24:32;15.10;99.00
57843;DHT22;43673;51.058;3.734;2023-04-24T16:27:01;15.10;99.00
57843;DHT22;43673;51.058;3.734;2023-04-24T16:29:30;15.20;98.70
57843;DHT22;43673;51.058;3.734;2023-04-24T16:31:56;15.10;98.80
57843;DHT22;43673;51.058;3.734;2023-04-24T16:34:22;15.20;98.80
57843;DHT22;43673;51.058;3.734;2023-04-24T16:36:51;15.00;98.80
57843;DHT22;43673;51.058;3.734;2023-04-24T16:39:33;15.00;99.20
57843;DHT22;43673;51.058;3.734;2023-04-24T16:41:59;15.00;99.20
57843;DHT22;43673;51.058;3.734;2023-04-24T16:44:30;15.00;99.20
57843;DHT22;43673;51.058;3.734;2023-04-24T16:47:09;15.00;99.20
57843;DHT22;43673;51.058;3.734;2023-04-24T16:52:14;15.00;98.70
57843;DHT22;43673;51.058;3.734;2023-04-24T16:54:40;15.00;98.50
57843;DHT22;43673;51.058;3.734;2023-04-24T16:57:06;14.90;98.50
57843;DHT22;43673;51.058;3.734;2023-04-24T16:59:32;15.00;98.70
57843;DHT22;43673;51.058;3.734;2023-04-24T17:01:59;14.80;99.00
57843;DHT22;43673;51.058;3.734;2023-04-24T17:04:27;14.80;99.10
57843;DHT22;43673;51.058;3.734;2023-04-24T17:07:02;14.70;99.60
57843;DHT22;43673;51.058;3.734;2023-04-24T17:09:29;14.50;99.90
57843;DHT22;43673;51.058;3.734;2023-04-24T17:12:00;14.50;99.90
57843;DHT22;43673;51.058;3.734;2023-04-24T17:14:54;14.40;99.90
57843;DHT22;43673;51.058;3.734;2023-04-24T17:17:42;14.40;99.90
57843;DHT22;43673;51.058;3.734;2023-04-24T17:20:12;14.50;99.90
57843;DHT22;43673;51.058;3.734;2023-04-24T17:22:41;14.30;99.90
57843;DHT22;43673;51.058;3.734;2023-04-24T17:28:07;14.40;99.90
57843;DHT22;43673;51.058;3.734;2023-04-24T17:31:03;14.40;99.90
57843;DHT22;43673;51.058;3.734;2023-04-24T18:07:54;13.10;99.90
